Time;durP1;ratioP1;P1;durP2;ratioP2;P2;SDS_P1;SDS_P2;PMS_P1;PMS_P2;Temp;Humidity;BMP_temperature;BMP_pressure;BME280_temperature;BME280_humidity;BME280_pressure;Samples;Min_cycle;Max_cycle;Signal;HPM_P1;HPM_P2
2022/04/29 00:03:01;;;;;;;5.63;5.07;;;;;;;12.99;50.71;99812.38;7003000;28;20718;-79
2022/04/29 00:06:23;;;;;;;6.30;5.60;;;;;;;12.88;50.66;99772.25;7002078;28;20205;-79
2022/04/29 00:09:44;;;;;;;6.83;5.17;;;;;;;12.92;50.52;99787.09;7002824;28;20205;-79
2022/04/29 00:13:07;;;;;;;7.57;5.63;;;;;;;12.40;52.61;99814.47;7002231;28;20225;-78
2022/04/29 00:16:30;;;;;;;6.07;5.57;;;;;;;12.52;53.01;99817.53;7001775;28;20762;-79
2022/04/29 00:19:52;;;;;;;5.80;5.30;;;;;;;12.44;52.74;99818.47;7002699;28;20221;-78
2022/04/29 00:23:13;;;;;;;5.90;5.40;;;;;;;12.44;52.28;99783.31;7002678;28;20268;-79
2022/04/29 00:26:35;;;;;;;6.53;5.30;;;;;;;12.68;51.96;99819.97;7001731;28;20716;-79
2022/04/29 00:29:57;;;;;;;6.07;5.57;;;;;;;12.14;53.18;99821.47;7001605;28;20585;-78
2022/04/29 00:33:19;;;;;;;7.67;5.80;;;;;;;12.23;53.37;99806.81;7002251;28;20222;-79
2022/04/29 00:36:41;;;;;;;6.00;4.80;;;;;;;12.08;52.96;99789.78;7002023;28;20699;-78
2022/04/29 00:40:03;;;;;;;6.27;5.67;;;;;;;11.81;53.67;99799.44;7001223;28;20205;-79
2022/04/29 00:43:24;;;;;;;6.83;5.90;;;;;;;11.78;54.41;99782.78;7002540;28;20249;-79
2022/04/29 00:46:46;;;;;;;7.20;5.43;;;;;;;12.45;52.62;99794.97;7001603;28;20233;-78
2022/04/29 00:50:11;;;;;;;6.87;6.10;;;;;;;11.95;53.04;99803.16;7002108;28;20620;-78
2022/04/29 00:53:32;;;;;;;7.40;5.33;;;;;;;12.28;52.90;99796.25;7002276;28;20240;-79
2022/04/29 00:56:56;;;;;;;5.93;5.33;;;;;;;12.35;52.29;99789.06;7001635;28;20249;-79
2022/04/29 01:00:19;;;;;;;5.87;5.37;;;;;;;11.88;52.79;99791.44;7002071;28;20295;-79
2022/04/29 01:03:42;;;;;;;7.20;5.60;;;;;;;11.72;53.39;99767.31;7001788;28;20208;-79
2022/04/29 01:07:05;;;;;;;5.87;5.37;;;;;;;11.67;53.97;99772.44;7001048;28;20251;-80
2022/04/29 01:10:27;;;;;;;6.10;5.57;;;;;;;11.51;54.75;99778.84;7001596;28;20364;-78
2022/04/29 01:13:49;;;;;;;7.10;5.90;;;;;;;11.51;54.31;99778.03;7001517;28;20205;-79
2022/04/29 01:17:11;;;;;;;6.87;6.07;;;;;;;11.28;55.25;99780.00;7001009;28;20236;-78
2022/04/29 01:20:33;;;;;;;6.97;6.37;;;;;;;11.30;54.59;99735.59;7002029;28;20767;-79
2022/04/29 01:23:56;;;;;;;5.97;5.47;;;;;;;12.05;53.66;99787.47;7001980;28;20274;-78
2022/04/29 01:27:18;;;;;;;6.27;5.40;;;;;;;12.04;51.97;99756.88;7001688;28;20265;-79
2022/04/29 01:30:40;;;;;;;8.77;5.73;;;;;;;11.72;53.96;99761.91;7002061;28;20300;-79
2022/04/29 01:34:02;;;;;;;6.23;5.40;;;;;;;11.71;53.48;99754.84;7001130;28;20295;-79
2022/04/29 01:37:24;;;;;;;5.97;5.40;;;;;;;11.88;52.53;99762.56;7000391;28;20594;-79
2022/04/29 01:40:47;;;;;;;7.13;5.90;;;;;;;11.70;53.44;99755.88;7005009;28;20222;-79
2022/04/29 01:44:08;;;;;;;6.93;5.77;;;;;;;11.48;53.79;99760.34;7006968;28;20333;-78
2022/04/29 01:47:30;;;;;;;7.03;6.43;;;;;;;11.36;54.85;99753.75;7005900;28;20685;-79
2022/04/29 01:50:52;;;;;;;7.10;6.10;;;;;;;11.17;54.80;99753.47;7006172;28;20234;-79
2022/04/29 01:54:13;;;;;;;6.80;6.13;;;;;;;11.08;55.43;99739.22;7006258;28;20217;-79
2022/04/29 01:57:36;;;;;;;6.90;6.20;;;;;;;11.21;55.20;99762.88;7005885;28;20225;-78
2022/04/29 02:00:58;;;;;;;6.80;6.10;;;;;;;11.30;55.07;99759.88;7005991;28;20222;-78
2022/04/29 02:04:19;;;;;;;11.23;5.80;;;;;;;11.31;54.56;99763.41;7006176;28;20233;-78
2022/04/29 02:07:44;;;;;;;6.80;6.20;;;;;;;11.67;53.92;99758.94;7004892;28;20250;-79
2022/04/29 02:11:05;;;;;;;7.20;5.97;;;;;;;11.26;54.48;99744.22;7005916;28;20222;-78
2022/04/29 02:14:29;;;;;;;6.97;6.37;;;;;;;11.16;55.11;99757.19;7006089;28;20201;-79
2022/04/29 02:17:50;;;;;;;6.37;5.77;;;;;;;11.71;52.80;99755.69;7005317;28;20225;-78
2022/04/29 02:21:12;;;;;;;5.77;5.37;;;;;;;11.52;53.63;99760.81;7005768;28;20230;-79
2022/04/29 02:24:33;;;;;;;6.23;5.63;;;;;;;11.51;53.20;99751.84;7005391;28;20730;-78
2022/04/29 02:27:55;;;;;;;6.63;6.13;;;;;;;11.41;53.75;99731.56;7005490;28;20685;-81
2022/04/29 02:31:18;;;;;;;7.60;6.23;;;;;;;11.38;53.58;99753.53;7005585;28;20295;-78
2022/04/29 02:34:41;;;;;;;6.87;6.10;;;;;;;11.08;55.01;99752.72;7004855;28;20213;-78
2022/04/29 02:38:03;;;;;;;12.63;7.40;;;;;;;11.09;55.14;99756.25;7003833;28;20254;-80
2022/04/29 02:41:24;;;;;;;7.40;6.47;;;;;;;11.10;54.88;99747.13;7004962;28;20237;-78
2022/04/29 02:44:46;;;;;;;7.33;6.53;;;;;;;11.28;54.18;99743.03;7004621;28;20275;-79
2022/04/29 02:48:10;;;;;;;7.87;6.37;;;;;;;11.08;54.90;99739.22;7004790;28;20213;-78
2022/04/29 02:51:31;;;;;;;7.80;7.07;;;;;;;10.84;55.16;99739.47;7004401;28;20274;-78
2022/04/29 02:54:53;;;;;;;7.87;6.90;;;;;;;10.59;56.08;99742.59;7004947;28;20221;-79
2022/04/29 02:58:14;;;;;;;7.23;6.53;;;;;;;10.44;56.74;99750.63;7004067;28;20226;-78
2022/04/29 03:01:36;;;;;;;7.00;6.40;;;;;;;10.30;56.46;99715.53;7004182;28;20225;-79
2022/04/29 03:04:59;;;;;;;7.43;6.73;;;;;;;10.62;56.37;99712.56;7004876;28;20252;-78
2022/04/29 03:08:20;;;;;;;7.63;6.83;;;;;;;10.76;55.81;99733.31;7003966;28;20205;-79
2022/04/29 03:11:42;;;;;;;7.83;7.10;;;;;;;10.48;56.11;99733.09;7004087;28;20368;-78
2022/04/29 03:15:16;;;;;;;9.07;7.40;;;;;;;10.25;56.64;99739.50;7004498;28;20297;-78
2022/04/29 03:18:39;;;;;;;7.57;6.87;;;;;;;9.88;57.40;99686.38;7004154;28;20225;-83
2022/04/29 03:22:02;;;;;;;7.93;7.00;;;;;;;10.71;56.29;99719.53;7005673;28;20221;-82
2022/04/29 03:25:23;;;;;;;7.53;6.83;;;;;;;10.51;56.26;99716.53;7005628;28;20209;-79
2022/04/29 03:28:45;;;;;;;7.00;6.30;;;;;;;11.05;54.42;99712.59;7006363;28;20243;-80
2022/04/29 03:32:08;;;;;;;11.70;7.00;;;;;;;10.53;54.73;99728.00;7020414;28;20235;-81
2022/04/29 03:35:29;;;;;;;7.93;7.20;;;;;;;9.92;56.96;99689.56;7044619;28;20291;-81
2022/04/29 03:38:52;;;;;;;8.33;7.53;;;;;;;10.02;57.63;99720.63;7033274;28;20225;-80
2022/04/29 03:42:14;;;;;;;7.73;7.00;;;;;;;10.17;57.29;99713.44;7031238;28;20338;-80
2022/04/29 03:45:35;;;;;;;10.37;7.50;;;;;;;10.49;56.05;99721.28;7031685;28;20186;-80
2022/04/29 03:52:45;;;;;;;8.30;7.50;;;;;;;10.65;55.13;99712.19;7039389;28;20217;-80
2022/04/29 03:56:08;;;;;;;7.43;6.73;;;;;;;10.28;56.27;99714.91;7032092;28;20233;-79
2022/04/29 03:59:30;;;;;;;20.60;16.10;;;;;;;10.22;56.62;99716.44;7032295;28;20243;-80
2022/04/29 04:02:52;;;;;;;7.97;7.13;;;;;;;9.91;56.88;99702.16;7031370;28;20225;-80
2022/04/29 04:09:52;;;;;;;9.83;7.60;;;;;;;9.95;56.42;99690.03;7030875;28;20641;-81
2022/04/29 04:13:15;;;;;;;8.43;7.50;;;;;;;10.16;57.24;99732.50;7030758;28;20811;-79
2022/04/29 04:16:37;;;;;;;8.97;7.17;;;;;;;10.01;57.08;99718.94;7029819;28;20362;-80
2022/04/29 04:20:02;;;;;;;8.83;7.53;;;;;;;10.18;57.31;99719.69;7030873;28;20231;-79
2022/04/29 04:23:23;;;;;;;7.93;7.17;;;;;;;10.21;56.78;99724.72;7030833;28;20198;-80
2022/04/29 04:26:45;;;;;;;9.10;7.40;;;;;;;10.32;56.68;99725.13;7017594;28;20205;-79
2022/04/29 04:30:09;;;;;;;8.27;7.47;;;;;;;10.04;57.69;99728.56;7003202;28;20216;-80
2022/04/29 04:33:31;;;;;;;8.40;7.63;;;;;;;9.96;57.37;99740.19;7003401;28;20205;-80
2022/04/29 04:36:53;;;;;;;8.50;7.70;;;;;;;10.10;57.87;99703.59;7002031;28;20737;-80
2022/04/29 04:40:15;;;;;;;7.97;7.27;;;;;;;10.18;57.17;99734.00;7017259;28;20197;-80
2022/04/29 04:43:37;;;;;;;12.03;7.90;;;;;;;10.29;57.21;99721.97;7029952;28;20205;-80
2022/04/29 04:47:00;;;;;;;12.47;10.77;;;;;;;10.62;55.47;99742.25;7030046;28;20189;-79
2022/04/29 04:50:21;;;;;;;12.30;9.57;;;;;;;10.53;55.90;99716.34;7006737;28;20222;-79
2022/04/29 04:53:43;;;;;;;7.60;6.90;;;;;;;10.40;55.88;99716.97;7002516;28;20671;-79
2022/04/29 04:57:05;;;;;;;8.30;7.50;;;;;;;10.39;56.41;99749.50;7001847;28;20360;-80
2022/04/29 05:00:27;;;;;;;7.73;7.03;;;;;;;10.71;56.56;99749.22;7002804;28;20225;-80
2022/04/29 05:03:50;;;;;;;9.50;8.10;;;;;;;10.80;55.82;99750.81;7016105;28;20237;-79
2022/04/29 05:07:12;;;;;;;7.73;6.90;;;;;;;11.46;53.67;99753.44;7030883;28;20667;-80
2022/04/29 05:10:33;;;;;;;7.37;6.50;;;;;;;11.37;54.15;99743.75;7028324;28;20305;-80
2022/04/29 05:13:55;;;;;;;9.77;6.80;;;;;;;11.51;53.75;99743.75;7011270;28;20301;-81
2022/04/29 05:17:16;;;;;;;7.60;6.80;;;;;;;11.74;53.71;99749.88;7013728;28;20596;-79
2022/04/29 05:20:39;;;;;;;7.40;6.60;;;;;;;11.63;54.62;99717.97;7007599;28;20218;-79
2022/04/29 05:24:01;;;;;;;8.63;7.83;;;;;;;11.98;54.05;99743.31;7009472;28;20207;-79
2022/04/29 05:27:22;;;;;;;9.90;9.00;;;;;;;11.76;53.44;99741.59;7010763;28;20225;-83
2022/04/29 05:30:44;;;;;;;8.70;7.43;;;;;;;12.12;53.11;99753.22;7031228;28;20225;-83
2022/04/29 05:34:06;;;;;;;10.30;7.83;;;;;;;11.90;53.64;99760.47;7038919;28;20231;-81
2022/04/29 05:37:29;;;;;;;8.33;7.57;;;;;;;12.05;53.88;99771.25;7038037;28;20218;-81
2022/04/29 05:44:30;;;;;;;13.77;11.90;;;;;;;12.72;51.89;99765.28;7035812;28;20206;-80
2022/04/29 05:47:52;;;;;;;11.97;10.40;;;;;;;12.82;51.63;99771.19;7037405;28;20662;-80
2022/04/29 05:51:13;;;;;;;12.43;8.20;;;;;;;12.58;51.93;99743.72;7030984;28;20266;-80
2022/04/29 05:54:36;;;;;;;9.50;8.43;;;;;;;11.74;53.16;99743.66;7030196;28;20197;-81
2022/04/29 05:57:58;;;;;;;9.83;8.87;;;;;;;12.19;53.41;99767.66;7036565;28;20244;-80
2022/04/29 06:01:20;;;;;;;10.07;8.67;;;;;;;12.39;52.84;99771.41;7034048;28;20682;-81
2022/04/29 06:04:41;;;;;;;8.77;7.87;;;;;;;13.07;51.30;99764.34;7034750;28;20212;-81
2022/04/29 06:08:03;;;;;;;10.87;8.10;;;;;;;13.39;50.32;99758.28;7038187;28;20208;-81
2022/04/29 06:11:26;;;;;;;9.67;7.17;;;;;;;13.75;49.20;99772.41;7037018;28;20226;-82
2022/04/29 06:14:48;;;;;;;9.43;7.83;;;;;;;13.35;50.32;99748.91;7037656;28;20205;-81
2022/04/29 06:18:09;;;;;;;9.73;7.77;;;;;;;13.52;49.82;99725.00;7030787;28;20617;-81
2022/04/29 06:21:31;;;;;;;10.47;7.30;;;;;;;13.75;49.45;99755.34;7018038;28;20215;-82
2022/04/29 06:24:52;;;;;;;10.73;8.60;;;;;;;14.03;49.49;99769.59;7008790;28;20198;-80
2022/04/29 06:28:15;;;;;;;11.63;7.93;;;;;;;14.32;48.79;99777.44;7009006;28;20666;-79
2022/04/29 06:31:37;;;;;;;13.17;6.77;;;;;;;14.71;46.76;99751.19;7024531;28;20230;-77
2022/04/29 06:34:59;;;;;;;11.37;7.43;;;;;;;14.77;46.32;99755.81;7009865;28;20202;-80
2022/04/29 06:38:20;;;;;;;8.90;8.00;;;;;;;14.85;47.30;99781.88;7018049;28;20223;-80
2022/04/29 06:41:42;;;;;;;10.40;7.67;;;;;;;14.98;46.98;99776.47;7036820;28;20222;-79
2022/04/29 06:45:07;;;;;;;10.57;7.67;;;;;;;15.69;45.77;99770.09;7034957;28;20215;-79
2022/04/29 06:48:29;;;;;;;8.30;7.57;;;;;;;16.10;44.54;99776.00;7034038;28;20190;-78
2022/04/29 06:51:50;;;;;;;8.47;7.57;;;;;;;16.41;44.00;99778.78;7033800;28;20298;-78
2022/04/29 06:55:12;;;;;;;8.70;7.43;;;;;;;16.25;44.93;99774.66;7034154;28;20210;-79
2022/04/29 06:58:34;;;;;;;9.27;8.13;;;;;;;15.95;45.23;99767.25;7015899;28;20221;-79
2022/04/29 07:01:57;;;;;;;8.87;7.47;;;;;;;16.56;44.49;99760.22;7010185;28;20225;-78
2022/04/29 07:05:19;;;;;;;11.13;7.97;;;;;;;16.42;43.82;99753.22;7018238;28;20212;-80
2022/04/29 07:08:41;;;;;;;8.90;7.80;;;;;;;15.99;44.52;99758.44;7035205;28;20604;-79
2022/04/29 07:12:03;;;;;;;8.70;7.80;;;;;;;16.63;42.83;99737.34;7017247;28;20289;-80
2022/04/29 07:15:24;;;;;;;8.00;7.20;;;;;;;17.11;41.23;99686.63;7008314;28;20339;-80
2022/04/29 07:18:47;;;;;;;9.20;7.27;;;;;;;18.01;40.88;99740.34;7007711;28;20278;-80
2022/04/29 07:22:09;;;;;;;8.33;7.53;;;;;;;18.50;39.83;99710.88;7025542;28;20236;-81
2022/04/29 07:25:31;;;;;;;7.43;6.67;;;;;;;18.67;38.98;99720.06;7043355;28;20201;-80
2022/04/29 07:28:53;;;;;;;8.70;7.63;;;;;;;18.21;40.71;99725.38;7037561;28;20204;-79
2022/04/29 07:32:14;;;;;;;9.43;7.10;;;;;;;18.55;39.63;99726.56;7034797;28;20220;-80
2022/04/29 07:43:01;;;;;;;7.77;6.80;;;;;;;19.00;40.59;99705.84;7006841;28;20224;-81
2022/04/29 07:46:23;;;;;;;7.23;6.53;;;;;;;19.02;40.12;99706.44;7009098;28;20674;-80
2022/04/29 07:49:46;;;;;;;11.03;7.23;;;;;;;18.67;41.44;99700.09;7025831;28;20206;-80
2022/04/29 07:53:09;;;;;;;9.23;7.03;;;;;;;18.94;41.67;99668.53;7020879;28;20225;-80
2022/04/29 07:56:31;;;;;;;7.23;6.53;;;;;;;19.14;40.18;99656.16;7035809;28;20201;-80
2022/04/29 07:59:52;;;;;;;7.20;6.43;;;;;;;20.01;39.29;99705.13;7035860;28;20248;-81
2022/04/29 08:03:14;;;;;;;9.67;7.23;;;;;;;20.70;37.61;99692.97;7034785;28;20238;-81
2022/04/29 08:06:36;;;;;;;11.10;7.00;;;;;;;20.59;37.42;99691.16;7017317;28;20213;-80
2022/04/29 08:09:59;;;;;;;10.07;6.73;;;;;;;21.02;35.92;99687.50;7011894;28;20293;-81
2022/04/29 08:13:20;;;;;;;8.63;6.90;;;;;;;21.23;35.18;99677.66;7018369;28;20202;-81
2022/04/29 08:16:42;;;;;;;8.45;6.35;;;;;;;21.45;34.63;99681.28;7016298;28;20199;-81
2022/04/29 08:20:05;;;;;;;7.07;6.37;;;;;;;21.56;33.89;99669.34;7037367;28;20215;-81
2022/04/29 08:23:27;;;;;;;8.60;6.57;;;;;;;21.95;31.05;99676.47;7036538;28;20207;-80
2022/04/29 08:26:50;;;;;;;7.30;6.43;;;;;;;21.02;34.31;99681.22;7033772;28;20202;-80
2022/04/29 08:30:12;;;;;;;10.63;6.10;;;;;;;20.50;34.31;99657.84;7034016;28;20246;-82
2022/04/29 08:33:33;;;;;;;10.07;6.73;;;;;;;21.49;34.39;99683.25;7028652;28;20206;-81
2022/04/29 08:36:55;;;;;;;8.27;6.60;;;;;;;21.83;33.86;99676.59;7020573;28;20205;-80
2022/04/29 08:40:17;;;;;;;6.83;5.83;;;;;;;22.28;31.55;99660.63;7035127;28;20213;-82
2022/04/29 08:43:41;;;;;;;8.43;6.37;;;;;;;21.77;30.49;99669.38;7016555;28;20298;-81
2022/04/29 08:47:04;;;;;;;7.27;5.97;;;;;;;23.23;27.70;99672.47;7023455;28;20201;-81
2022/04/29 08:50:26;;;;;;;7.00;6.30;;;;;;;21.69;28.67;99680.81;7030633;28;20251;-81
2022/04/29 08:53:48;;;;;;;8.70;6.23;;;;;;;21.44;28.45;99680.47;7031257;28;20213;-80
2022/04/29 09:00:52;;;;;;;7.33;5.60;;;;;;;21.38;30.46;99678.75;7019838;28;20231;-81
2022/04/29 09:04:13;;;;;;;9.70;6.00;;;;;;;22.05;29.07;99671.06;7003452;28;20314;-81
2022/04/29 09:07:55;;;;;;;6.53;5.83;;;;;;;21.24;29.10;99644.50;7003553;28;20572;-81
2022/04/29 09:11:23;;;;;;;6.03;5.37;;;;;;;22.02;28.67;99657.88;7003466;28;20233;-81
2022/04/29 09:14:44;;;;;;;6.63;5.93;;;;;;;23.02;27.83;99645.84;7017427;28;20686;-82
2022/04/29 09:18:07;;;;;;;8.80;5.80;;;;;;;22.59;27.59;99656.28;7002671;28;20228;-80
2022/04/29 09:21:31;;;;;;;6.87;5.27;;;;;;;21.62;28.36;99610.69;7003193;28;20320;-82
2022/04/29 09:25:00;;;;;;;7.37;5.20;;;;;;;22.95;25.94;99616.94;7003452;28;20733;-81
2022/04/29 09:28:22;;;;;;;5.13;4.57;;;;;;;22.78;27.70;99627.28;7011210;28;20234;-81
2022/04/29 09:31:52;;;;;;;5.30;4.80;;;;;;;21.72;28.50;99625.38;7031795;28;20228;-81
2022/04/29 09:35:16;;;;;;;5.17;4.63;;;;;;;21.58;27.57;99609.53;7016642;28;20319;-80
2022/04/29 09:42:37;;;;;;;4.37;3.97;;;;;;;22.23;27.32;99624.00;7031477;28;20600;-80
2022/04/29 09:46:13;;;;;;;5.80;3.80;;;;;;;23.42;26.08;99617.81;7033096;28;20186;-80
2022/04/29 09:49:34;;;;;;;5.67;4.00;;;;;;;23.81;25.86;99608.84;7032740;28;20186;-80
2022/04/29 09:52:57;;;;;;;4.27;3.83;;;;;;;22.01;26.65;99609.53;7031627;28;20233;-81
2022/04/29 09:56:19;;;;;;;6.43;4.13;;;;;;;22.49;26.09;99609.44;7022431;28;20209;-79
2022/04/29 09:59:42;;;;;;;4.30;3.83;;;;;;;22.51;26.13;99599.84;7027574;28;20223;-79
2022/04/29 10:03:04;;;;;;;3.80;3.50;;;;;;;22.70;25.65;99600.25;7037255;28;20222;-79
2022/04/29 10:06:26;;;;;;;4.57;3.60;;;;;;;22.53;26.18;99589.41;7028164;28;20685;-80
2022/04/29 10:09:50;;;;;;;4.40;4.00;;;;;;;22.68;26.56;99596.94;7016358;28;20295;-80
2022/04/29 10:13:12;;;;;;;4.30;3.90;;;;;;;23.48;25.79;99578.19;7037958;28;20318;-79
2022/04/29 10:16:35;;;;;;;5.43;3.60;;;;;;;24.37;25.69;99574.78;7036691;28;20295;-79
2022/04/29 10:23:48;;;;;;;4.03;3.10;;;;;;;24.04;25.10;99571.72;7035857;28;20185;-79
2022/04/29 10:27:11;;;;;;;4.30;3.40;;;;;;;23.55;25.00;99578.75;7034485;28;20222;-79
2022/04/29 10:30:35;;;;;;;4.57;3.27;;;;;;;24.34;23.41;99577.28;7034490;28;20217;-79
2022/04/29 10:34:29;;;;;;;3.23;3.00;;;;;;;24.45;23.44;99565.16;7007743;28;20210;-80
2022/04/29 10:37:51;;;;;;;4.30;3.20;;;;;;;24.69;22.25;99567.09;7010338;28;20224;-79
2022/04/29 10:41:17;;;;;;;4.20;3.43;;;;;;;23.24;24.99;99566.78;7007852;28;20225;-79
2022/04/29 10:45:01;;;;;;;3.90;3.47;;;;;;;23.89;23.39;99571.72;7007719;28;20591;-80
2022/04/29 10:48:33;;;;;;;3.93;3.03;;;;;;;23.66;23.98;99570.25;7007539;28;20194;-80
2022/04/29 10:51:55;;;;;;;2.90;2.70;;;;;;;23.99;23.81;99557.94;7008256;28;20249;-80
2022/04/29 10:55:22;;;;;;;4.97;3.00;;;;;;;24.39;23.29;99556.06;7019035;28;20201;-80
2022/04/29 10:58:46;;;;;;;4.70;3.63;;;;;;;24.06;22.36;99547.50;7021239;28;20229;-80
2022/04/29 11:02:13;;;;;;;4.07;3.33;;;;;;;22.88;24.71;99536.56;7036566;28;20634;-79
2022/04/29 11:05:36;;;;;;;3.97;3.43;;;;;;;25.01;22.70;99534.44;7035465;28;20193;-80
2022/04/29 11:08:58;;;;;;;3.93;3.20;;;;;;;24.82;23.20;99538.94;7017074;28;20205;-79
2022/04/29 11:12:29;;;;;;;5.53;3.00;;;;;;;25.62;22.77;99532.28;7006714;28;20720;-79
2022/04/29 11:15:51;;;;;;;5.57;3.17;;;;;;;26.57;21.34;99520.56;7007229;28;20257;-80
2022/04/29 11:19:21;;;;;;;12.17;4.80;;;;;;;26.76;20.83;99510.38;7006752;28;20223;-79
2022/04/29 11:26:34;;;;;;;3.20;2.90;;;;;;;25.96;21.71;99522.97;7013656;28;20199;-80
2022/04/29 11:29:56;;;;;;;2.90;2.67;;;;;;;26.58;20.74;99517.50;7016998;28;20209;-80
2022/04/29 11:33:24;;;;;;;8.60;2.97;;;;;;;26.27;20.11;99504.22;7011156;28;20229;-79
2022/04/29 11:36:47;;;;;;;4.13;2.97;;;;;;;25.63;22.09;99529.25;7028877;28;20346;-79
2022/04/29 11:40:11;;;;;;;3.03;2.77;;;;;;;24.29;22.44;99511.94;7009186;28;20674;-80
2022/04/29 11:43:33;;;;;;;4.57;3.13;;;;;;;25.86;22.00;99500.91;7005379;28;20201;-79
2022/04/29 11:46:55;;;;;;;3.00;2.80;;;;;;;26.06;20.26;99498.03;7005651;28;20193;-79
2022/04/29 11:50:16;;;;;;;4.07;2.80;;;;;;;23.80;22.79;99480.50;7018859;28;20623;-79
2022/04/29 11:53:55;;;;;;;5.03;2.83;;;;;;;23.79;22.76;99506.38;7033942;28;20204;-79
2022/04/29 11:57:17;;;;;;;3.53;2.90;;;;;;;24.77;22.82;99486.53;7005730;28;20225;-79
2022/04/29 12:00:39;;;;;;;3.73;3.30;;;;;;;24.05;23.06;99502.59;7005180;28;20238;-79
2022/04/29 12:04:01;;;;;;;4.13;3.10;;;;;;;24.18;21.55;99481.94;7005424;28;20234;-79
2022/04/29 12:07:23;;;;;;;3.03;2.83;;;;;;;25.34;22.21;99467.56;7015191;28;20209;-79
2022/04/29 12:10:47;;;;;;;3.33;3.03;;;;;;;26.01;21.74;99484.25;7032336;28;20273;-80
2022/04/29 12:14:16;;;;;;;3.77;2.70;;;;;;;26.20;21.42;99463.06;7014054;28;20254;-79
2022/04/29 12:17:39;;;;;;;5.03;2.80;;;;;;;25.58;20.99;99463.00;7006513;28;20577;-79
2022/04/29 12:21:00;;;;;;;3.63;3.33;;;;;;;23.44;23.72;99476.03;7003403;28;20231;-79
2022/04/29 12:24:22;;;;;;;5.57;3.00;;;;;;;23.97;23.35;99478.34;7003548;28;20665;-78
2022/04/29 12:27:45;;;;;;;3.70;3.07;;;;;;;23.69;22.75;99470.56;7003751;28;20215;-79
2022/04/29 12:35:08;;;;;;;3.93;3.23;;;;;;;24.76;21.85;99454.53;7005884;28;20208;-79
2022/04/29 12:38:34;;;;;;;3.17;2.90;;;;;;;24.84;22.38;99461.41;7006540;28;20366;-79
2022/04/29 12:42:00;;;;;;;4.47;3.13;;;;;;;25.04;22.36;99464.91;7003900;28;20230;-78
2022/04/29 12:45:25;;;;;;;3.40;3.10;;;;;;;24.84;21.94;99458.66;7003238;28;20197;-78
2022/04/29 12:48:48;;;;;;;3.20;3.00;;;;;;;24.60;22.76;99455.69;7003016;28;20194;-79
2022/04/29 12:52:11;;;;;;;3.50;2.73;;;;;;;24.58;22.92;99455.13;7003589;28;20267;-78
2022/04/29 12:55:35;;;;;;;3.20;2.90;;;;;;;25.41;21.99;99443.22;7019604;28;20200;-79
2022/04/29 12:58:57;;;;;;;5.23;2.90;;;;;;;25.45;21.67;99433.25;7010029;28;20222;-79
2022/04/29 13:02:20;;;;;;;5.33;3.00;;;;;;;26.25;22.10;99424.31;7008623;28;20321;-79
2022/04/29 13:05:42;;;;;;;4.53;3.27;;;;;;;26.69;21.86;99443.50;7003613;28;20207;-79
2022/04/29 13:09:04;;;;;;;7.07;4.17;;;;;;;26.37;21.76;99408.16;7003272;28;20209;-79
2022/04/29 13:12:26;;;;;;;5.00;3.87;;;;;;;26.50;21.69;99414.94;7002740;28;20226;-79
2022/04/29 13:15:48;;;;;;;5.23;3.40;;;;;;;27.16;21.57;99400.03;7018270;28;20202;-79
2022/04/29 13:19:11;;;;;;;4.07;3.67;;;;;;;27.48;20.60;99404.84;7030408;28;20266;-79
2022/04/29 13:22:34;;;;;;;5.17;3.70;;;;;;;26.75;20.07;99374.00;7029817;28;20225;-78
2022/04/29 13:25:56;;;;;;;4.23;3.83;;;;;;;26.82;21.26;99402.13;7030767;28;20239;-79
2022/04/29 13:29:18;;;;;;;3.73;3.33;;;;;;;27.26;19.97;99394.34;7031333;28;20221;-79
2022/04/29 13:32:41;;;;;;;5.57;3.30;;;;;;;27.80;19.64;99399.34;7025450;28;20217;-79
2022/04/29 13:36:06;;;;;;;5.27;3.57;;;;;;;27.29;20.05;99393.75;7033298;28;20658;-79
2022/04/29 13:39:28;;;;;;;3.70;3.40;;;;;;;27.80;20.51;99385.50;7036814;28;20684;-79
2022/04/29 13:42:50;;;;;;;3.80;3.30;;;;;;;27.71;20.41;99371.47;7036350;28;20710;-79
2022/04/29 13:46:12;;;;;;;3.47;3.17;;;;;;;28.00;20.22;99358.25;7027455;28;20231;-79
2022/04/29 13:49:34;;;;;;;8.27;3.33;;;;;;;27.48;20.31;99375.16;7008585;28;20202;-79
2022/04/29 13:53:09;;;;;;;4.67;3.13;;;;;;;27.05;21.50;99359.75;7036710;28;20606;-79
2022/04/29 13:56:31;;;;;;;3.93;3.20;;;;;;;26.05;21.90;99346.28;7036142;28;20197;-79
2022/04/29 13:59:52;;;;;;;4.77;3.50;;;;;;;25.68;22.73;99359.88;7035392;28;20225;-79
2022/04/29 14:03:14;;;;;;;4.03;3.23;;;;;;;24.25;23.22;99359.25;7022583;28;20230;-79
2022/04/29 14:06:36;;;;;;;3.67;2.80;;;;;;;24.72;23.48;99356.09;7008144;28;20581;-79
2022/04/29 14:09:59;;;;;;;4.80;3.37;;;;;;;24.71;22.63;99313.06;7007841;28;20221;-79
2022/04/29 14:13:20;;;;;;;3.30;3.10;;;;;;;26.02;22.10;99352.41;7007817;28;20221;-79
2022/04/29 14:16:42;;;;;;;3.83;3.37;;;;;;;25.59;23.39;99315.47;7007925;28;20198;-79
2022/04/29 14:20:04;;;;;;;5.87;3.13;;;;;;;23.99;24.05;99360.41;7007588;28;20296;-79
2022/04/29 14:23:25;;;;;;;4.67;3.93;;;;;;;24.08;24.40;99322.09;7007241;28;20247;-79
2022/04/29 14:26:48;;;;;;;3.90;3.60;;;;;;;23.81;24.23;99343.59;7006806;28;20203;-79
2022/04/29 14:30:11;;;;;;;3.63;3.33;;;;;;;25.43;23.05;99338.00;7007675;28;20202;-79
2022/04/29 14:33:33;;;;;;;4.13;3.70;;;;;;;25.71;22.60;99306.81;7007157;28;20206;-79
2022/04/29 14:36:55;;;;;;;4.33;3.87;;;;;;;24.98;23.02;99319.78;7007191;28;20213;-79
2022/04/29 14:40:17;;;;;;;5.50;3.70;;;;;;;25.05;22.91;99297.38;7006650;28;20271;-79
2022/04/29 14:43:41;;;;;;;3.53;3.23;;;;;;;24.60;23.61;99317.00;7006082;28;20240;-79
2022/04/29 14:47:03;;;;;;;5.10;3.27;;;;;;;26.29;21.69;99312.00;7005513;28;20210;-79
2022/04/29 14:50:24;;;;;;;3.33;3.03;;;;;;;25.69;21.89;99278.66;7007050;28;20319;-79
2022/04/29 14:53:48;;;;;;;4.30;3.10;;;;;;;26.30;22.40;99319.19;7007102;28;20238;-79
2022/04/29 14:57:09;;;;;;;6.17;3.10;;;;;;;24.15;23.83;99320.72;7007721;28;20224;-79
2022/04/29 15:00:32;;;;;;;3.60;3.30;;;;;;;24.57;23.46;99325.81;7006191;28;20230;-80
2022/04/29 15:03:54;;;;;;;4.33;3.10;;;;;;;24.56;22.43;99324.97;7006232;28;20213;-80
2022/04/29 15:07:16;;;;;;;5.90;3.20;;;;;;;23.85;23.48;99328.19;7005549;28;20213;-80
2022/04/29 15:17:56;;;;;;;4.30;3.10;;;;;;;24.49;23.29;99315.34;7004844;28;20201;-81
2022/04/29 15:21:18;;;;;;;3.27;2.97;;;;;;;25.16;22.85;99313.59;7005519;28;20240;-80
2022/04/29 15:24:40;;;;;;;3.17;2.90;;;;;;;25.41;22.62;99304.31;7005051;28;20270;-80
2022/04/29 15:28:02;;;;;;;3.03;2.80;;;;;;;25.76;23.60;99302.06;7004284;28;20248;-81
2022/04/29 15:31:23;;;;;;;3.30;3.00;;;;;;;24.90;22.36;99303.03;7004740;28;20225;-80
2022/04/29 15:34:48;;;;;;;4.70;3.50;;;;;;;24.19;23.22;99310.75;7004633;28;20204;-80
2022/04/29 15:38:10;;;;;;;4.33;3.10;;;;;;;23.33;24.17;99313.91;7003422;28;20204;-80
2022/04/29 15:41:31;;;;;;;3.57;3.27;;;;;;;24.26;23.33;99314.03;7003626;28;20319;-80
2022/04/29 15:44:53;;;;;;;5.67;3.60;;;;;;;24.21;22.92;99311.31;7002886;28;20199;-81
2022/04/29 15:48:15;;;;;;;7.13;3.50;;;;;;;23.85;24.22;99311.66;7003529;28;20246;-80
2022/04/29 15:51:38;;;;;;;3.63;3.33;;;;;;;24.43;24.81;99308.22;7003444;28;20224;-80
2022/04/29 15:55:00;;;;;;;4.17;3.70;;;;;;;24.38;24.93;99322.00;7003136;28;20236;-80
2022/04/29 15:58:21;;;;;;;4.33;3.70;;;;;;;24.74;23.97;99316.09;7002169;28;20205;-80
2022/04/29 16:01:43;;;;;;;3.53;3.23;;;;;;;25.27;23.54;99309.69;7002420;28;20230;-80
2022/04/29 16:05:06;;;;;;;4.60;3.70;;;;;;;25.29;23.51;99304.69;7002573;28;20213;-80
2022/04/29 16:08:29;;;;;;;5.40;3.90;;;;;;;24.36;25.22;99300.22;7001925;28;20205;-81
2022/04/29 16:11:51;;;;;;;4.70;3.50;;;;;;;24.48;24.68;99253.84;7002381;28;20251;-81
2022/04/29 16:15:13;;;;;;;8.10;3.83;;;;;;;25.12;23.81;99284.91;7002849;28;20218;-80
2022/04/29 16:25:35;;;;;;;4.27;3.87;;;;;;;24.56;24.15;99278.09;7003634;28;20217;-81
2022/04/29 16:25:56;;;;;;;6.87;3.80;;;;;;;24.18;24.24;99287.06;7002820;28;20613;-81
2022/04/29 16:29:19;;;;;;;3.90;3.57;;;;;;;24.03;24.81;99291.81;7003875;28;20234;-80
2022/04/29 16:32:40;;;;;;;3.70;3.13;;;;;;;24.53;24.49;99286.06;7004272;28;20259;-80
2022/04/29 16:36:02;;;;;;;4.30;3.70;;;;;;;23.93;24.50;99295.41;7015014;28;20728;-80
2022/04/29 16:39:24;;;;;;;6.57;3.70;;;;;;;23.93;24.93;99294.59;7013928;28;20231;-79
2022/04/29 16:42:47;;;;;;;5.70;3.60;;;;;;;24.20;25.17;99295.88;7030298;28;20233;-80